Time;durP1;ratioP1;P1;durP2;ratioP2;P2;SDS_P1;SDS_P2;PMS_P1;PMS_P2;Temp;Humidity;BMP_temperature;BMP_pressure;BME280_temperature;BME280_humidity;BME280_pressure;Samples;Min_cycle;Max_cycle;Signal;HPM_P1;HPM_P2
2022/06/09 00:00:35;;;;;;;4.07;2.33;;;;;;;19.50;62.46;100256.06;5024214;28;20057;-69
2022/06/09 00:03:09;;;;;;;4.05;1.67;;;;;;;19.68;62.22;100259.59;5023758;28;20049;-69
2022/06/09 00:05:38;;;;;;;4.45;1.80;;;;;;;19.86;61.61;100260.47;5021425;28;20143;-69
2022/06/09 00:08:07;;;;;;;4.72;2.05;;;;;;;19.72;62.02;100259.16;5029929;28;20041;-70
2022/06/09 00:10:37;;;;;;;5.00;1.90;;;;;;;19.24;64.17;100266.50;5022467;28;20125;-69
2022/06/09 00:13:03;;;;;;;3.05;1.60;;;;;;;19.41;63.13;100269.25;5027641;28;20437;-69
2022/06/09 00:15:30;;;;;;;5.75;2.13;;;;;;;19.51;63.33;100260.41;5025555;28;20115;-70
2022/06/09 00:17:57;;;;;;;4.85;1.80;;;;;;;19.61;62.91;100263.84;5031458;28;20054;-70
2022/06/09 00:20:24;;;;;;;3.83;1.83;;;;;;;19.77;62.78;100264.03;5022689;28;20053;-70
2022/06/09 00:22:51;;;;;;;4.32;1.75;;;;;;;19.62;63.59;100273.50;5023968;28;20494;-70
2022/06/09 00:25:18;;;;;;;6.50;2.25;;;;;;;19.90;62.89;100256.50;5028510;28;20111;-70
2022/06/09 00:27:44;;;;;;;8.35;2.08;;;;;;;20.08;62.16;100267.16;5024315;28;20073;-70
2022/06/09 00:30:14;;;;;;;6.03;2.70;;;;;;;19.66;64.03;100269.56;5022833;28;20534;-70
2022/06/09 00:32:41;;;;;;;4.65;2.10;;;;;;;19.44;65.11;100265.44;5021950;28;20045;-70
2022/06/09 00:35:10;;;;;;;7.28;2.42;;;;;;;19.53;64.91;100269.91;5025093;28;20053;-70
2022/06/09 00:37:36;;;;;;;4.18;2.00;;;;;;;19.71;64.96;100264.59;5030435;28;20099;-70
2022/06/09 00:40:04;;;;;;;4.00;2.15;;;;;;;19.77;64.28;100262.19;5023881;28;20038;-71
2022/06/09 00:42:32;;;;;;;6.25;2.10;;;;;;;19.85;64.78;100264.09;5024872;28;20506;-71
2022/06/09 00:45:26;;;;;;;6.20;2.03;;;;;;;19.93;64.79;100266.84;5025311;28;20486;-72
2022/06/09 00:47:58;;;;;;;4.20;2.00;;;;;;;19.35;67.09;100272.47;5024210;28;20462;-72
2022/06/09 00:50:28;;;;;;;7.73;2.50;;;;;;;19.50;67.40;100275.50;5024667;28;20126;-72
2022/06/09 00:52:59;;;;;;;7.47;2.60;;;;;;;19.58;67.19;100266.81;5026415;28;20099;-74
2022/06/09 00:55:29;;;;;;;6.43;2.03;;;;;;;19.40;67.89;100270.19;5021457;28;20494;-73
2022/06/09 00:58:02;;;;;;;4.72;2.47;;;;;;;19.06;69.85;100265.59;5023842;28;20045;-73
2022/06/09 01:00:35;;;;;;;5.00;2.30;;;;;;;18.81;71.10;100267.88;5023188;28;20522;-73
2022/06/09 01:03:02;;;;;;;5.72;2.40;;;;;;;18.63;71.55;100268.75;5023289;28;20045;-72
2022/06/09 01:05:33;;;;;;;5.70;2.47;;;;;;;18.71;71.52;100268.88;5026087;28;20041;-72
2022/06/09 01:08:02;;;;;;;8.63;2.60;;;;;;;18.40;73.82;100265.53;5037133;28;20045;-72
2022/06/09 01:10:30;;;;;;;6.20;2.40;;;;;;;18.34;74.42;100268.72;5031131;28;20081;-72
2022/06/09 01:12:57;;;;;;;4.78;2.22;;;;;;;18.43;73.91;100268.75;5024111;28;20406;-73
2022/06/09 01:15:31;;;;;;;5.80;2.38;;;;;;;18.86;72.34;100270.94;5024584;28;20112;-73
2022/06/09 01:18:06;;;;;;;6.10;2.83;;;;;;;18.70;72.76;100267.22;5024488;28;20497;-73
2022/06/09 01:20:41;;;;;;;7.90;2.70;;;;;;;18.55;73.96;100272.09;5024671;28;20063;-73
2022/06/09 01:23:52;;;;;;;8.13;2.80;;;;;;;18.33;75.05;100275.00;5025065;28;20045;-73
2022/06/09 01:26:48;;;;;;;6.93;2.72;;;;;;;18.26;75.21;100274.75;5019704;28;20049;-73
2022/06/09 01:29:25;;;;;;;5.28;2.67;;;;;;;18.42;74.55;100276.84;5023052;28;20171;-73
2022/06/09 01:31:59;;;;;;;6.25;2.50;;;;;;;18.42;74.34;100282.16;5024728;28;20624;-73
2022/06/09 01:34:34;;;;;;;5.32;2.83;;;;;;;18.40;74.99;100284.13;5025881;28;20076;-73
2022/06/09 01:37:08;;;;;;;11.68;3.30;;;;;;;18.96;72.23;100274.41;5025014;28;20099;-73
2022/06/09 01:39:45;;;;;;;10.80;3.13;;;;;;;18.88;72.05;100273.47;5023723;28;20482;-73
2022/06/09 01:42:31;;;;;;;8.50;2.97;;;;;;;18.94;72.11;100267.56;5024296;28;20045;-73
2022/06/09 01:45:00;;;;;;;7.93;3.20;;;;;;;18.63;74.01;100272.22;5025011;28;20421;-73
2022/06/09 01:47:36;;;;;;;7.78;2.88;;;;;;;18.76;73.50;100274.59;5024562;28;20049;-73
2022/06/09 01:50:06;;;;;;;7.28;2.95;;;;;;;18.67;73.20;100270.13;5023472;28;20060;-74
2022/06/09 01:52:34;;;;;;;4.63;2.70;;;;;;;18.36;74.89;100270.28;5023287;28;20053;-74
2022/06/09 01:55:02;;;;;;;7.68;3.05;;;;;;;18.23;75.95;100272.38;5024886;28;20050;-74
2022/06/09 01:57:36;;;;;;;5.93;3.38;;;;;;;17.87;77.43;100278.34;5043402;28;20102;-74
2022/06/09 02:00:07;;;;;;;5.93;3.30;;;;;;;17.84;77.52;100281.28;5043645;28;20566;-73
2022/06/09 02:02:38;;;;;;;6.85;3.67;;;;;;;18.20;76.16;100283.28;5026306;28;20049;-74
2022/06/09 02:05:09;;;;;;;6.55;3.47;;;;;;;18.54;74.10;100273.09;5022995;28;20041;-74
2022/06/09 02:07:37;;;;;;;4.75;3.53;;;;;;;18.49;74.40;100270.84;5024994;28;20399;-73
2022/06/09 02:10:18;;;;;;;7.28;3.88;;;;;;;18.44;74.80;100266.91;5023544;28;20043;-73
2022/06/09 02:12:48;;;;;;;4.50;3.20;;;;;;;18.81;73.20;100280.31;5024732;28;20502;-74
2022/06/09 02:15:22;;;;;;;4.10;3.10;;;;;;;18.76;72.55;100285.22;5024389;28;20669;-73
2022/06/09 02:17:51;;;;;;;6.40;3.17;;;;;;;18.96;72.00;100282.38;5014575;28;20049;-74
2022/06/09 02:20:21;;;;;;;7.30;3.35;;;;;;;18.39;74.68;100277.97;5022454;28;20057;-74
2022/06/09 02:22:48;;;;;;;5.38;3.28;;;;;;;18.07;76.08;100281.88;5016379;28;20084;-74
2022/06/09 02:25:14;;;;;;;7.60;3.15;;;;;;;18.05;76.63;100287.31;5026683;28;20053;-74
2022/06/09 02:27:40;;;;;;;7.05;3.15;;;;;;;18.12;76.74;100285.78;5028305;28;20080;-73
2022/06/09 02:30:08;;;;;;;7.47;2.80;;;;;;;18.27;75.60;100284.38;5028093;28;20579;-73
2022/06/09 02:32:35;;;;;;;6.25;3.00;;;;;;;18.54;74.44;100280.22;5027602;28;20103;-73
2022/06/09 02:35:03;;;;;;;8.68;3.15;;;;;;;18.67;73.90;100276.28;5027335;28;20416;-73
2022/06/09 02:37:30;;;;;;;5.85;3.15;;;;;;;18.80;73.54;100289.28;5026681;28;20046;-73
2022/06/09 02:39:56;;;;;;;4.70;3.38;;;;;;;18.62;74.07;100288.31;5028345;28;20045;-73
2022/06/09 02:42:22;;;;;;;6.95;3.33;;;;;;;18.68;74.10;100290.41;5027120;28;20088;-73
2022/06/09 02:44:49;;;;;;;5.90;3.05;;;;;;;18.64;74.04;100286.34;5027675;28;20045;-73
2022/06/09 02:47:15;;;;;;;7.40;3.13;;;;;;;18.51;74.53;100294.63;5028128;28;20529;-73
2022/06/09 02:49:44;;;;;;;7.95;3.15;;;;;;;17.78;77.88;100303.84;5031714;28;20417;-73
2022/06/09 02:52:11;;;;;;;6.75;3.13;;;;;;;17.69;78.46;100294.06;5027699;28;20049;-73
2022/06/09 02:54:38;;;;;;;6.93;3.33;;;;;;;17.48;79.61;100295.91;5027972;28;20537;-74
2022/06/09 02:57:04;;;;;;;6.18;3.55;;;;;;;17.85;77.74;100306.78;5028781;28;20567;-74
2022/06/09 02:59:31;;;;;;;8.05;3.22;;;;;;;18.02;77.30;100308.81;5026756;28;20053;-74
2022/06/09 03:01:57;;;;;;;6.13;3.42;;;;;;;17.88;77.17;100312.69;5027952;28;20053;-73
2022/06/09 03:04:23;;;;;;;6.38;3.10;;;;;;;17.40;79.67;100309.00;5023820;28;20072;-73
2022/06/09 03:06:50;;;;;;;6.30;3.15;;;;;;;17.59;79.06;100310.94;5028516;28;20463;-73
2022/06/09 03:09:17;;;;;;;5.47;3.00;;;;;;;17.46;80.27;100319.06;5039293;28;20087;-73
2022/06/09 03:11:44;;;;;;;7.50;3.45;;;;;;;17.29;80.73;100319.69;5028570;28;20168;-73
2022/06/09 03:14:10;;;;;;;8.73;4.15;;;;;;;17.08;81.42;100322.34;5047521;28;20095;-73
2022/06/09 03:16:37;;;;;;;6.05;3.67;;;;;;;17.44;80.58;100323.69;5046297;28;20067;-73
2022/06/09 03:19:04;;;;;;;5.75;3.15;;;;;;;17.30;81.26;100318.69;5029482;28;20049;-73
2022/06/09 03:21:31;;;;;;;6.63;3.17;;;;;;;17.33;80.98;100324.56;5027833;28;20053;-73
2022/06/09 03:23:58;;;;;;;5.50;3.60;;;;;;;17.89;78.87;100309.03;5025304;28;20095;-73
2022/06/09 03:26:26;;;;;;;7.28;3.25;;;;;;;17.90;77.96;100318.69;5025893;28;20045;-73
2022/06/09 03:28:52;;;;;;;5.28;3.35;;;;;;;18.15;77.35;100316.47;5024266;28;20049;-73
2022/06/09 03:31:18;;;;;;;4.75;3.60;;;;;;;18.43;75.80;100315.69;5026017;28;20053;-73
2022/06/09 03:33:46;;;;;;;7.75;3.70;;;;;;;18.80;74.21;100329.13;5043891;28;20048;-73
2022/06/09 03:36:12;;;;;;;8.00;3.38;;;;;;;18.73;74.29;100320.03;5029188;28;20045;-73
2022/06/09 03:38:40;;;;;;;5.40;3.50;;;;;;;18.54;74.84;100338.63;5025708;28;20099;-73
2022/06/09 03:41:07;;;;;;;8.43;3.30;;;;;;;18.38;75.41;100336.50;5026757;28;20098;-73
2022/06/09 03:43:35;;;;;;;7.57;3.40;;;;;;;18.60;74.91;100332.75;5035884;28;20083;-73
2022/06/09 03:46:02;;;;;;;3.95;2.75;;;;;;;18.80;73.64;100339.75;5045091;28;20037;-73
2022/06/09 03:48:29;;;;;;;6.93;3.08;;;;;;;19.16;71.67;100336.31;5046362;28;20036;-73
2022/06/09 03:50:55;;;;;;;3.65;2.38;;;;;;;18.52;74.25;100345.88;5046681;28;20513;-73
2022/06/09 03:53:21;;;;;;;4.43;2.20;;;;;;;18.44;73.53;100343.88;5039917;28;20049;-73
2022/06/09 03:55:48;;;;;;;4.93;2.28;;;;;;;18.83;71.67;100340.31;5026338;28;20096;-72
2022/06/09 03:58:14;;;;;;;5.13;2.50;;;;;;;18.89;71.42;100346.84;5028587;28;20037;-72
2022/06/09 04:00:42;;;;;;;3.95;2.30;;;;;;;18.73;71.37;100358.06;5024040;28;20103;-73
2022/06/09 04:03:09;;;;;;;3.40;2.10;;;;;;;18.58;71.74;100359.47;5026395;28;20680;-72
2022/06/09 04:05:35;;;;;;;4.97;2.10;;;;;;;19.10;70.51;100357.31;5025555;28;20106;-72
2022/06/09 04:08:03;;;;;;;4.30;2.28;;;;;;;18.65;71.51;100354.44;5038346;28;20040;-73
2022/06/09 04:10:32;;;;;;;5.53;2.30;;;;;;;18.92;70.79;100365.16;5012991;28;20057;-73
2022/06/09 04:12:59;;;;;;;4.43;2.15;;;;;;;18.95;70.55;100354.28;5035041;28;20095;-73
2022/06/09 04:15:26;;;;;;;3.97;2.33;;;;;;;18.63;71.77;100359.03;5040736;28;20056;-73
2022/06/09 04:17:53;;;;;;;4.57;2.80;;;;;;;18.53;71.71;100360.84;5024853;28;20046;-73
2022/06/09 04:20:22;;;;;;;4.88;2.58;;;;;;;18.52;71.78;100367.97;5024813;28;20053;-73
2022/06/09 04:22:49;;;;;;;5.72;3.10;;;;;;;18.37;72.58;100379.94;5006313;28;20056;-73
2022/06/09 04:25:16;;;;;;;5.55;3.33;;;;;;;18.30;72.45;100369.03;5005516;28;20053;-72
2022/06/09 04:27:42;;;;;;;8.00;3.50;;;;;;;18.64;71.96;100368.69;5007465;28;20046;-73
2022/06/09 04:30:10;;;;;;;4.90;4.28;;;;;;;18.42;72.71;100381.22;5019362;28;20076;-72
2022/06/09 04:32:37;;;;;;;6.18;4.00;;;;;;;18.80;71.52;100387.56;5024927;28;20038;-72
2022/06/09 04:35:05;;;;;;;6.30;3.88;;;;;;;18.98;70.29;100380.56;5025998;28;20076;-72
2022/06/09 04:40:16;;;;;;;6.05;4.40;;;;;;;18.72;72.15;100390.06;5029885;28;20052;-72
2022/06/09 04:42:42;;;;;;;6.88;3.97;;;;;;;18.71;71.46;100385.72;5044558;28;20110;-72
2022/06/09 04:45:09;;;;;;;5.50;3.85;;;;;;;18.99;70.14;100392.88;5030082;28;20049;-72
2022/06/09 04:47:36;;;;;;;8.73;4.15;;;;;;;19.23;69.94;100389.75;5026032;28;20541;-72
2022/06/09 04:50:02;;;;;;;8.05;4.20;;;;;;;19.01;70.70;100395.38;5022284;28;20091;-72
2022/06/09 04:52:30;;;;;;;5.70;3.83;;;;;;;19.17;69.29;100391.16;5024437;28;20513;-72
2022/06/09 04:54:57;;;;;;;12.70;4.75;;;;;;;19.00;70.53;100383.91;5025872;28;20045;-72
2022/06/09 04:57:24;;;;;;;9.05;4.25;;;;;;;18.73;71.05;100384.63;5024250;28;20049;-72
2022/06/09 04:59:50;;;;;;;7.90;4.80;;;;;;;18.75;71.50;100392.44;5032628;28;20047;-72
2022/06/09 05:02:17;;;;;;;8.38;4.80;;;;;;;18.96;69.82;100388.66;5040844;28;20098;-72
2022/06/09 05:04:44;;;;;;;7.00;4.97;;;;;;;19.23;69.12;100389.75;5043414;28;20106;-72
2022/06/09 05:07:10;;;;;;;9.07;5.30;;;;;;;19.02;69.69;100386.44;5045076;28;20495;-72
2022/06/09 05:09:38;;;;;;;8.95;5.22;;;;;;;19.30;68.57;100391.69;5038199;28;20041;-72
2022/06/09 05:12:05;;;;;;;12.07;5.82;;;;;;;19.29;68.60;100402.47;5023672;28;20046;-72
2022/06/09 05:14:31;;;;;;;8.15;5.25;;;;;;;19.26;68.64;100406.25;5024565;28;20045;-72
2022/06/09 05:16:58;;;;;;;7.35;4.97;;;;;;;19.20;69.18;100401.50;5025998;28;20486;-72
2022/06/09 05:19:24;;;;;;;8.10;5.10;;;;;;;18.87;70.07;100415.25;5022539;28;20088;-72
2022/06/09 05:21:50;;;;;;;9.43;5.75;;;;;;;18.76;70.67;100418.03;5025318;28;20099;-72
2022/06/09 05:24:17;;;;;;;9.73;5.72;;;;;;;18.82;69.65;100418.31;5025193;28;20049;-72
2022/06/09 05:26:44;;;;;;;7.03;4.85;;;;;;;19.40;67.93;100431.56;5034150;28;20045;-72
2022/06/09 05:29:11;;;;;;;8.15;5.07;;;;;;;19.39;69.17;100438.69;5044717;28;20049;-72
2022/06/09 05:31:37;;;;;;;8.52;4.90;;;;;;;19.53;69.34;100439.25;5044419;28;20095;-72
2022/06/09 05:34:03;;;;;;;9.05;5.30;;;;;;;19.27;68.46;100434.50;5042595;28;20099;-71
2022/06/09 05:36:30;;;;;;;6.85;5.20;;;;;;;19.38;67.93;100437.00;5035725;28;20053;-71
2022/06/09 05:47:09;;;;;;;6.35;4.55;;;;;;;20.14;65.42;100451.06;5034795;28;20576;-71
2022/06/09 05:49:36;;;;;;;9.35;4.97;;;;;;;19.76;66.71;100457.41;5023670;28;20104;-71
2022/06/09 05:52:02;;;;;;;7.57;5.32;;;;;;;19.72;66.14;100466.66;5024098;28;20565;-71
2022/06/09 05:54:29;;;;;;;20.88;5.50;;;;;;;19.47;66.91;100466.44;5024862;28;20046;-71
2022/06/09 05:56:55;;;;;;;10.30;6.10;;;;;;;19.85;65.72;100461.84;5024999;28;20447;-71
2022/06/09 05:59:21;;;;;;;7.63;4.70;;;;;;;19.63;65.69;100469.31;5021039;28;20498;-71
2022/06/09 06:01:49;;;;;;;9.95;5.97;;;;;;;19.25;66.87;100468.34;5025492;28;20095;-71
2022/06/09 06:04:16;;;;;;;9.23;6.32;;;;;;;19.18;68.16;100469.09;5025604;28;20041;-71
2022/06/09 06:06:43;;;;;;;9.00;5.50;;;;;;;19.33;68.17;100479.13;5029357;28;20122;-71
2022/06/09 06:09:12;;;;;;;12.02;6.25;;;;;;;19.62;66.63;100480.97;5031506;28;20052;-71
2022/06/09 06:11:39;;;;;;;14.02;6.30;;;;;;;19.70;66.27;100479.25;5024238;28;20490;-71
2022/06/09 06:14:06;;;;;;;9.18;6.90;;;;;;;19.26;66.99;100485.16;5022440;28;20053;-71
2022/06/09 06:16:33;;;;;;;10.25;7.00;;;;;;;19.52;67.23;100490.75;5023729;28;20057;-71
2022/06/09 06:19:01;;;;;;;10.63;6.82;;;;;;;19.38;67.33;100498.16;5024300;28;20127;-71
2022/06/09 06:21:27;;;;;;;25.13;8.23;;;;;;;19.69;66.56;100504.19;5022213;28;20115;-71
2022/06/09 06:23:55;;;;;;;11.07;7.30;;;;;;;19.16;67.57;100503.78;5022810;28;20049;-71
2022/06/09 06:26:22;;;;;;;14.15;7.68;;;;;;;19.22;66.99;100508.50;5024026;28;20048;-71
2022/06/09 06:28:48;;;;;;;13.23;7.03;;;;;;;19.54;66.70;100507.41;5021791;28;20045;-71
2022/06/09 06:31:15;;;;;;;11.70;7.47;;;;;;;19.58;65.60;100508.81;5023088;28;20504;-71
2022/06/09 06:33:41;;;;;;;11.50;6.60;;;;;;;19.40;66.48;100508.66;5024298;28;20468;-71
2022/06/09 06:36:09;;;;;;;10.20;6.88;;;;;;;19.69;65.27;100520.16;5024082;28;20053;-71
2022/06/09 06:38:37;;;;;;;13.02;6.22;;;;;;;19.79;65.03;100518.28;5029653;28;20107;-71
2022/06/09 06:41:05;;;;;;;10.23;6.70;;;;;;;19.47;65.53;100523.13;5024342;28;20049;-71
2022/06/09 06:43:31;;;;;;;12.82;6.85;;;;;;;19.77;64.93;100519.44;5024401;28;20180;-72
2022/06/09 06:45:58;;;;;;;9.25;6.47;;;;;;;20.33;63.67;100519.41;5025389;28;20045;-72
2022/06/09 06:48:24;;;;;;;12.95;6.70;;;;;;;20.32;64.09;100523.06;5044265;28;20041;-72
2022/06/09 06:50:50;;;;;;;10.73;6.30;;;;;;;20.79;62.52;100526.44;5021344;28;20232;-72
2022/06/09 06:53:18;;;;;;;9.93;6.03;;;;;;;20.66;63.37;100529.47;5023952;28;20103;-71
2022/06/09 06:55:44;;;;;;;9.43;6.53;;;;;;;20.91;62.06;100535.09;5023679;28;20099;-71
2022/06/09 06:58:11;;;;;;;11.88;6.80;;;;;;;20.74;61.94;100536.72;5022058;28;20046;-71
2022/06/09 07:00:38;;;;;;;10.10;6.00;;;;;;;20.88;60.75;100541.53;5022965;28;20054;-71
2022/06/09 07:03:06;;;;;;;10.88;6.32;;;;;;;20.71;61.06;100537.84;5023747;28;20065;-71
2022/06/09 07:05:32;;;;;;;9.52;6.22;;;;;;;20.73;62.23;100540.38;5034099;28;20400;-71
2022/06/09 07:07:59;;;;;;;13.20;6.47;;;;;;;20.51;62.90;100546.91;5039041;28;20464;-71
2022/06/09 07:10:27;;;;;;;13.48;6.53;;;;;;;20.99;61.89;100538.66;5023998;28;20522;-72
2022/06/09 07:12:53;;;;;;;9.30;6.22;;;;;;;21.21;60.39;100542.75;5023856;28;20072;-72
2022/06/09 07:15:20;;;;;;;9.20;6.13;;;;;;;21.62;61.51;100541.25;5036075;28;20094;-72
2022/06/09 07:17:46;;;;;;;10.20;6.05;;;;;;;21.85;59.02;100543.28;5037640;28;20088;-72
2022/06/09 07:20:14;;;;;;;12.07;5.90;;;;;;;22.26;57.57;100547.06;5022308;28;20517;-72
2022/06/09 07:22:40;;;;;;;12.00;5.95;;;;;;;22.43;58.40;100547.16;5027736;28;20107;-71
2022/06/09 07:25:09;;;;;;;11.35;5.72;;;;;;;22.14;57.53;100539.47;5028591;28;20103;-71
2022/06/09 07:27:36;;;;;;;9.02;5.45;;;;;;;22.28;57.76;100547.75;5021892;28;20042;-72
2022/06/09 07:30:04;;;;;;;9.63;6.28;;;;;;;22.77;58.38;100556.84;5027132;28;20092;-72
2022/06/09 07:32:30;;;;;;;10.27;5.95;;;;;;;22.72;56.65;100550.34;5028439;28;20046;-71
2022/06/09 07:34:56;;;;;;;11.13;5.85;;;;;;;22.80;55.88;100550.34;5026272;28;20096;-72
2022/06/09 07:37:23;;;;;;;9.10;6.03;;;;;;;22.70;57.13;100554.97;5026760;28;20069;-72
2022/06/09 07:39:49;;;;;;;8.30;6.05;;;;;;;22.80;55.69;100553.84;5027200;28;20046;-71
2022/06/09 07:42:16;;;;;;;10.82;6.13;;;;;;;22.25;56.58;100564.09;5040062;28;20045;-70
2022/06/09 07:44:45;;;;;;;10.35;5.85;;;;;;;22.70;57.05;100558.50;5009948;28;20091;-71
2022/06/09 07:47:11;;;;;;;8.77;5.78;;;;;;;22.78;55.29;100552.34;5024372;28;20041;-74
2022/06/09 07:49:37;;;;;;;14.98;5.70;;;;;;;22.60;58.10;100567.63;5030507;28;20072;-74
2022/06/09 07:52:05;;;;;;;10.25;6.03;;;;;;;22.67;56.04;100563.31;5026072;28;20042;-70
2022/06/09 07:54:31;;;;;;;9.45;5.80;;;;;;;22.55;56.28;100569.91;5018568;28;20107;-69
2022/06/09 07:56:58;;;;;;;9.65;5.57;;;;;;;22.88;54.88;100568.25;5027799;28;20040;-69
2022/06/09 07:59:24;;;;;;;11.57;5.57;;;;;;;23.06;53.38;100572.47;5036433;28;20048;-69
2022/06/09 08:01:52;;;;;;;9.85;5.72;;;;;;;23.35;53.93;100576.56;5021341;28;20045;-69
2022/06/09 08:04:18;;;;;;;11.70;5.72;;;;;;;23.61;53.35;100578.09;5027532;28;20049;-69
2022/06/09 08:06:44;;;;;;;12.18;6.13;;;;;;;23.72;54.13;100572.41;5041544;28;20077;-69
2022/06/09 08:09:12;;;;;;;9.30;6.10;;;;;;;24.04;52.84;100576.06;5027696;28;20099;-69
2022/06/09 08:11:38;;;;;;;12.00;5.75;;;;;;;23.99;52.48;100573.91;5036011;28;20131;-69
2022/06/09 08:14:06;;;;;;;10.52;5.15;;;;;;;24.17;52.37;100576.41;5030890;28;20122;-69
2022/06/09 08:16:33;;;;;;;11.88;5.63;;;;;;;23.86;51.36;100573.59;5026670;28;20100;-69
2022/06/09 08:19:01;;;;;;;8.82;4.38;;;;;;;23.99;51.96;100578.41;5024912;28;20045;-70
2022/06/09 08:21:28;;;;;;;9.10;5.03;;;;;;;23.60;51.51;100578.28;5029014;28;20050;-69
2022/06/09 08:23:55;;;;;;;8.63;5.13;;;;;;;23.74;52.07;100588.31;5025957;28;20095;-69
2022/06/09 08:26:22;;;;;;;11.30;6.03;;;;;;;23.20;53.85;100585.22;5026931;28;20103;-69
2022/06/09 08:28:49;;;;;;;7.95;4.90;;;;;;;23.09;53.99;100592.72;5028670;28;20113;-69
2022/06/09 08:31:15;;;;;;;11.82;5.45;;;;;;;23.42;54.32;100580.28;5038298;28;20045;-69
2022/06/09 08:33:42;;;;;;;12.23;5.78;;;;;;;23.51;52.91;100592.66;5043350;28;20048;-69
2022/06/09 08:36:10;;;;;;;13.25;5.65;;;;;;;23.21;52.71;100600.25;5043967;28;20044;-69
2022/06/09 08:38:37;;;;;;;9.73;5.15;;;;;;;24.10;54.58;100599.50;5024907;28;20053;-69
2022/06/09 08:41:17;;;;;;;9.15;5.30;;;;;;;24.05;51.51;100583.13;5024835;28;20042;-68
2022/06/09 08:43:48;;;;;;;8.95;5.10;;;;;;;23.43;51.59;100606.03;5040333;28;20452;-68
2022/06/09 08:46:24;;;;;;;8.18;5.10;;;;;;;23.32;52.00;100606.31;5025559;28;20049;-69
2022/06/09 08:48:54;;;;;;;8.82;5.22;;;;;;;23.32;53.51;100609.00;5021058;28;20048;-69
2022/06/09 08:51:33;;;;;;;13.98;5.85;;;;;;;23.31;52.66;100618.03;5025113;28;20055;-69
2022/06/09 08:54:10;;;;;;;8.50;5.60;;;;;;;23.40;53.62;100617.00;5015250;28;20072;-69
2022/06/09 08:56:36;;;;;;;10.63;5.50;;;;;;;23.64;54.91;100622.44;5016074;28;20049;-69
2022/06/09 08:59:13;;;;;;;9.43;5.55;;;;;;;24.03;52.19;100618.09;5030252;28;20053;-69
2022/06/09 09:01:42;;;;;;;9.25;5.55;;;;;;;23.59;53.18;100627.44;5034644;28;20076;-69
2022/06/09 09:04:17;;;;;;;10.63;5.05;;;;;;;24.23;50.79;100615.94;5021528;28;20055;-69
2022/06/09 09:06:51;;;;;;;8.30;5.00;;;;;;;24.58;50.42;100630.75;5018221;28;20195;-76
2022/06/09 09:09:22;;;;;;;7.10;4.70;;;;;;;25.33;48.69;100631.13;5035053;28;20064;-68
2022/06/09 09:12:01;;;;;;;9.88;4.53;;;;;;;25.39;47.91;100633.91;5025327;28;20107;-68
2022/06/09 09:14:35;;;;;;;10.32;5.72;;;;;;;25.11;47.70;100636.28;5027623;28;20045;-67
2022/06/09 09:17:11;;;;;;;11.90;5.22;;;;;;;24.64;48.10;100635.44;5044512;28;20052;-67
2022/06/09 09:19:47;;;;;;;7.82;5.43;;;;;;;24.31;48.51;100640.03;5034690;28;20498;-67
2022/06/09 09:22:25;;;;;;;10.55;5.88;;;;;;;24.49;49.88;100642.50;5027884;28;20045;-68
2022/06/09 09:25:01;;;;;;;9.98;5.82;;;;;;;25.00;48.62;100642.03;5024860;28;20240;-68
2022/06/09 09:27:35;;;;;;;14.05;5.97;;;;;;;25.59;49.54;100645.91;5025800;28;20119;-68
2022/06/09 09:30:13;;;;;;;13.90;5.75;;;;;;;26.01;46.65;100645.44;5038895;28;20417;-68
2022/06/09 09:32:42;;;;;;;10.15;5.93;;;;;;;26.25;48.14;100649.75;5044844;28;20049;-68
2022/06/09 09:35:14;;;;;;;8.02;5.32;;;;;;;26.56;43.64;100647.78;5042900;28;20045;-68
2022/06/09 09:37:46;;;;;;;9.23;5.40;;;;;;;26.07;44.07;100657.28;5040140;28;20490;-68
2022/06/09 09:40:22;;;;;;;9.38;5.45;;;;;;;25.48;45.34;100661.56;5024410;28;20107;-68
2022/06/09 09:42:51;;;;;;;9.57;5.03;;;;;;;26.35;45.05;100647.63;5023443;28;20045;-68
2022/06/09 09:45:19;;;;;;;10.20;5.35;;;;;;;26.95;43.38;100669.03;5025336;28;20486;-68
2022/06/09 09:47:49;;;;;;;20.92;6.10;;;;;;;26.44;45.47;100670.75;5028008;28;20076;-68
2022/06/09 09:50:33;;;;;;;9.98;5.38;;;;;;;26.09;46.00;100666.84;5019527;28;20038;-68
2022/06/09 09:53:04;;;;;;;9.73;5.28;;;;;;;26.50;47.96;100672.69;5004384;28;20046;-68
2022/06/09 09:55:39;;;;;;;12.60;4.95;;;;;;;26.71;45.01;100671.16;5004088;28;20045;-68
2022/06/09 09:58:23;;;;;;;8.90;5.22;;;;;;;26.96;43.54;100665.31;5015898;28;20421;-68
2022/06/09 10:00:52;;;;;;;11.02;5.10;;;;;;;27.74;42.74;100666.47;5010134;28;20041;-68
2022/06/09 10:09:06;;;;;;;5.63;4.10;;;;;;;27.14;41.75;100674.84;5022458;28;20048;-68
2022/06/09 10:11:54;;;;;;;8.98;4.60;;;;;;;25.88;42.72;100693.53;5024954;28;20413;-68
2022/06/09 10:14:37;;;;;;;8.10;4.88;;;;;;;25.20;43.58;100686.19;5022343;28;20061;-68
2022/06/09 10:17:06;;;;;;;11.90;5.10;;;;;;;24.90;44.49;100688.84;5017999;28;20077;-68
2022/06/09 10:19:34;;;;;;;10.88;4.70;;;;;;;24.54;47.41;100699.94;5022022;28;20049;-68
2022/06/09 10:22:03;;;;;;;11.18;5.30;;;;;;;23.93;49.07;100705.81;5025489;28;20103;-68
2022/06/09 10:24:40;;;;;;;8.00;5.35;;;;;;;23.49;50.08;100701.72;5023705;28;20464;-68
2022/06/09 10:27:08;;;;;;;8.88;5.93;;;;;;;23.57;51.77;100702.59;5026266;28;20103;-68
2022/06/09 10:29:44;;;;;;;10.63;5.25;;;;;;;23.79;48.44;100708.31;5024112;28;20050;-68
2022/06/09 10:32:19;;;;;;;10.32;5.05;;;;;;;23.71;48.47;100722.50;5025682;28;20041;-68
2022/06/09 10:34:52;;;;;;;9.80;5.07;;;;;;;24.23;48.39;100715.91;5023316;28;20561;-68
2022/06/09 10:37:25;;;;;;;6.35;4.70;;;;;;;24.56;46.85;100719.41;5024768;28;20103;-68
2022/06/09 10:40:04;;;;;;;8.10;5.10;;;;;;;24.34;47.40;100716.56;5023634;28;20057;-68
2022/06/09 10:42:37;;;;;;;6.45;4.57;;;;;;;24.43;47.68;100728.94;5025216;28;20549;-68
2022/06/09 10:45:17;;;;;;;7.47;4.35;;;;;;;23.93;47.24;100729.06;5043135;28;20037;-68
2022/06/09 10:56:21;;;;;;;8.43;4.40;;;;;;;23.51;48.24;100742.53;5029019;28;20099;-68
2022/06/09 10:58:53;;;;;;;9.57;4.32;;;;;;;23.60;48.81;100742.41;5038367;28;20045;-68
2022/06/09 11:01:22;;;;;;;9.75;3.97;;;;;;;24.08;49.86;100744.34;5027450;28;20049;-68
2022/06/09 11:03:51;;;;;;;8.52;4.25;;;;;;;24.08;47.16;100746.16;5014643;28;20407;-68
2022/06/09 11:06:37;;;;;;;7.28;4.22;;;;;;;24.35;47.60;100748.56;5026619;28;20048;-68
2022/06/09 11:09:25;;;;;;;7.70;3.97;;;;;;;24.76;46.00;100748.53;5026547;28;20041;-68
2022/06/09 11:12:11;;;;;;;9.38;4.22;;;;;;;25.60;45.10;100746.94;5027429;28;20438;-68
2022/06/09 11:14:50;;;;;;;7.25;3.97;;;;;;;26.43;43.44;100744.34;5027075;28;20456;-68
2022/06/09 11:17:31;;;;;;;7.15;3.80;;;;;;;26.17;41.77;100741.19;5027547;28;20041;-68
2022/06/09 11:20:12;;;;;;;6.03;3.63;;;;;;;26.03;42.27;100745.50;5026130;28;20045;-68
2022/06/09 11:22:46;;;;;;;8.93;4.10;;;;;;;25.78;42.94;100748.53;5027656;28;20738;-68
2022/06/09 11:25:26;;;;;;;6.80;4.35;;;;;;;26.31;43.31;100761.94;5026996;28;20103;-68
2022/06/09 11:28:06;;;;;;;7.82;4.30;;;;;;;26.92;44.06;100743.91;5027732;28;20045;-68
2022/06/09 11:30:42;;;;;;;7.93;4.57;;;;;;;26.39;43.19;100752.97;5029851;28;20102;-68
2022/06/09 11:33:20;;;;;;;8.85;4.28;;;;;;;25.63;42.37;100751.13;5038230;28;20073;-68
2022/06/09 11:35:53;;;;;;;9.63;4.00;;;;;;;25.32;45.17;100752.91;5026678;28;20045;-68
2022/06/09 11:38:38;;;;;;;7.78;4.13;;;;;;;25.31;43.31;100753.94;5027024;28;20044;-68
2022/06/09 11:41:16;;;;;;;10.05;4.35;;;;;;;24.92;43.70;100751.19;5041298;28;20533;-68
2022/06/09 11:43:56;;;;;;;9.75;4.70;;;;;;;25.10;45.48;100751.81;5028320;28;20049;-68
2022/06/09 11:46:25;;;;;;;9.93;4.00;;;;;;;25.00;43.84;100743.97;5026070;28;20456;-68
2022/06/09 11:48:55;;;;;;;8.38;4.13;;;;;;;25.08;42.29;100740.44;5024487;28;20095;-68
2022/06/09 11:51:25;;;;;;;7.15;4.60;;;;;;;25.40;45.87;100739.44;5025745;28;20041;-68
2022/06/09 11:53:54;;;;;;;8.25;3.90;;;;;;;25.83;43.50;100744.28;5027279;28;20072;-68
2022/06/09 11:56:44;;;;;;;7.72;3.50;;;;;;;26.44;41.73;100745.19;5025385;28;20045;-68
2022/06/09 11:59:22;;;;;;;9.38;3.55;;;;;;;26.77;41.23;100734.97;5026302;28;20442;-68
2022/06/09 12:02:20;;;;;;;7.38;3.70;;;;;;;27.48;38.38;100737.03;5025135;28;20045;-68